sensor_id;sensor_type;location;lat;lon;timestamp;temperature;humidity
23079;DHT22;11707;50.830;4.364;2023-05-10T00:01:27;12.90;99.90
23079;DHT22;11707;50.830;4.364;2023-05-10T00:03:53;12.90;99.90
23079;DHT22;11707;50.830;4.364;2023-05-10T00:06:19;13.00;99.90
23079;DHT22;11707;50.830;4.364;2023-05-10T00:08:47;13.00;99.90
23079;DHT22;11707;50.830;4.364;2023-05-10T00:11:13;13.00;99.90
23079;DHT22;11707;50.830;4.364;2023-05-10T00:13:39;12.90;99.90
23079;DHT22;11707;50.830;4.364;2023-05-10T00:16:07;13.00;99.90
23079;DHT22;11707;50.830;4.364;2023-05-10T00:18:33;13.00;99.90
23079;DHT22;11707;50.830;4.364;2023-05-10T00:20:58;12.90;99.90
23079;DHT22;11707;50.830;4.364;2023-05-10T00:23:24;13.00;99.90
23079;DHT22;11707;50.830;4.364;2023-05-10T00:25:50;12.90;99.90
23079;DHT22;11707;50.830;4.364;2023-05-10T00:28:15;13.00;99.90
23079;DHT22;11707;50.830;4.364;2023-05-10T00:30:41;13.00;99.90
23079;DHT22;11707;50.830;4.364;2023-05-10T00:33:07;13.10;99.90
23079;DHT22;11707;50.830;4.364;2023-05-10T00:35:35;13.10;99.90
23079;DHT22;11707;50.830;4.364;2023-05-10T00:38:01;13.20;99.90
23079;DHT22;11707;50.830;4.364;2023-05-10T00:40:27;13.30;99.90
23079;DHT22;11707;50.830;4.364;2023-05-10T00:42:54;13.40;99.90
23079;DHT22;11707;50.830;4.364;2023-05-10T00:45:19;13.40;99.90
23079;DHT22;11707;50.830;4.364;2023-05-10T00:47:45;13.50;99.90
23079;DHT22;11707;50.830;4.364;2023-05-10T00:50:11;13.30;99.90
23079;DHT22;11707;50.830;4.364;2023-05-10T00:52:36;13.40;99.90
23079;DHT22;11707;50.830;4.364;2023-05-10T00:55:02;13.60;99.90
23079;DHT22;11707;50.830;4.364;2023-05-10T00:57:29;13.70;99.90
23079;DHT22;11707;50.830;4.364;2023-05-10T00:59:58;13.70;99.90
23079;DHT22;11707;50.830;4.364;2023-05-10T01:02:24;13.50;99.90
23079;DHT22;11707;50.830;4.364;2023-05-10T01:04:50;13.50;99.90
23079;DHT22;11707;50.830;4.364;2023-05-10T01:07:17;13.40;99.90
23079;DHT22;11707;50.830;4.364;2023-05-10T01:09:42;13.40;99.90
23079;DHT22;11707;50.830;4.364;2023-05-10T01:12:11;13.30;99.90
23079;DHT22;11707;50.830;4.364;2023-05-10T01:14:39;13.30;99.90
23079;DHT22;11707;50.830;4.364;2023-05-10T01:17:08;13.20;99.90
23079;DHT22;11707;50.830;4.364;2023-05-10T01:19:35;13.20;99.90
23079;DHT22;11707;50.830;4.364;2023-05-10T01:34:23;13.00;99.90
23079;DHT22;11707;50.830;4.364;2023-05-10T01:36:51;12.90;99.90
23079;DHT22;11707;50.830;4.364;2023-05-10T01:42:11;13.00;99.90
23079;DHT22;11707;50.830;4.364;2023-05-10T01:45:19;13.00;99.90
23079;DHT22;11707;50.830;4.364;2023-05-10T01:47:54;13.00;99.90
23079;DHT22;11707;50.830;4.364;2023-05-10T01:50:27;13.00;99.90
23079;DHT22;11707;50.830;4.364;2023-05-10T01:52:57;13.10;99.90
23079;DHT22;11707;50.830;4.364;2023-05-10T01:55:27;13.00;99.90
23079;DHT22;11707;50.830;4.364;2023-05-10T01:58:03;13.00;99.90
23079;DHT22;11707;50.830;4.364;2023-05-10T02:00:31;13.10;99.90
23079;DHT22;11707;50.830;4.364;2023-05-10T02:02:57;13.00;99.90
23079;DHT22;11707;50.830;4.364;2023-05-10T02:05:26;13.00;99.90
23079;DHT22;11707;50.830;4.364;2023-05-10T02:07:55;13.00;99.90
23079;DHT22;11707;50.830;4.364;2023-05-10T02:10:23;13.00;99.90
23079;DHT22;11707;50.830;4.364;2023-05-10T02:12:50;12.90;99.90
23079;DHT22;11707;50.830;4.364;2023-05-10T02:15:23;12.80;99.90
23079;DHT22;11707;50.830;4.364;2023-05-10T02:17:50;12.80;99.90
23079;DHT22;11707;50.830;4.364;2023-05-10T02:20:16;12.80;99.90
23079;DHT22;11707;50.830;4.364;2023-05-10T02:22:45;12.90;99.90
23079;DHT22;11707;50.830;4.364;2023-05-10T02:25:13;12.80;99.90
23079;DHT22;11707;50.830;4.364;2023-05-10T02:27:41;12.80;99.90
23079;DHT22;11707;50.830;4.364;2023-05-10T02:30:11;12.80;99.90
23079;DHT22;11707;50.830;4.364;2023-05-10T02:32:41;12.70;99.90
23079;DHT22;11707;50.830;4.364;2023-05-10T02:35:08;12.70;99.90
23079;DHT22;11707;50.830;4.364;2023-05-10T02:37:34;12.70;99.90
23079;DHT22;11707;50.830;4.364;2023-05-10T02:40:01;12.70;99.90
23079;DHT22;11707;50.830;4.364;2023-05-10T02:42:29;12.70;99.90
23079;DHT22;11707;50.830;4.364;2023-05-10T02:45:08;12.70;99.90
23079;DHT22;11707;50.830;4.364;2023-05-10T02:47:36;12.80;99.90
23079;DHT22;11707;50.830;4.364;2023-05-10T02:50:02;12.80;99.90
23079;DHT22;11707;50.830;4.364;2023-05-10T02:52:36;12.70;99.90
23079;DHT22;11707;50.830;4.364;2023-05-10T02:55:05;12.70;99.90
23079;DHT22;11707;50.830;4.364;2023-05-10T02:57:35;12.70;99.90
23079;DHT22;11707;50.830;4.364;2023-05-10T03:00:04;12.70;99.90
23079;DHT22;11707;50.830;4.364;2023-05-10T03:02:30;12.70;99.90
23079;DHT22;11707;50.830;4.364;2023-05-10T03:04:56;12.70;99.90
23079;DHT22;11707;50.830;4.364;2023-05-10T03:07:22;12.70;99.90
23079;DHT22;11707;50.830;4.364;2023-05-10T03:09:48;12.70;99.90
23079;DHT22;11707;50.830;4.364;2023-05-10T03:12:27;12.70;99.90
23079;DHT22;11707;50.830;4.364;2023-05-10T03:18:04;12.60;99.90
23079;DHT22;11707;50.830;4.364;2023-05-10T03:20:36;12.40;99.90
23079;DHT22;11707;50.830;4.364;2023-05-10T03:25:42;12.40;99.90
23079;DHT22;11707;50.830;4.364;2023-05-10T03:28:09;12.40;99.90
23079;DHT22;11707;50.830;4.364;2023-05-10T03:30:35;12.30;99.90
23079;DHT22;11707;50.830;4.364;2023-05-10T03:33:08;12.30;99.90
23079;DHT22;11707;50.830;4.364;2023-05-10T03:35:36;12.40;99.90
23079;DHT22;11707;50.830;4.364;2023-05-10T03:38:02;12.30;99.90
23079;DHT22;11707;50.830;4.364;2023-05-10T03:40:28;12.30;99.90
23079;DHT22;11707;50.830;4.364;2023-05-10T03:42:56;12.30;99.90
23079;DHT22;11707;50.830;4.364;2023-05-10T03:45:22;12.30;99.90
23079;DHT22;11707;50.830;4.364;2023-05-10T03:47:48;12.30;99.90
23079;DHT22;11707;50.830;4.364;2023-05-10T03:50:14;12.30;99.90
23079;DHT22;11707;50.830;4.364;2023-05-10T03:52:39;12.30;99.90
23079;DHT22;11707;50.830;4.364;2023-05-10T03:55:05;12.40;99.90
23079;DHT22;11707;50.830;4.364;2023-05-10T03:57:31;12.40;99.90
23079;DHT22;11707;50.830;4.364;2023-05-10T03:59:57;12.40;99.90
23079;DHT22;11707;50.830;4.364;2023-05-10T04:02:23;12.50;99.90
23079;DHT22;11707;50.830;4.364;2023-05-10T04:04:48;12.50;99.90
23079;DHT22;11707;50.830;4.364;2023-05-10T04:07:14;12.40;99.90
23079;DHT22;11707;50.830;4.364;2023-05-10T04:09:40;12.50;99.90
23079;DHT22;11707;50.830;4.364;2023-05-10T04:12:06;12.40;99.90
23079;DHT22;11707;50.830;4.364;2023-05-10T04:14:34;12.40;99.90
23079;DHT22;11707;50.830;4.364;2023-05-10T04:17:00;12.40;99.90
23079;DHT22;11707;50.830;4.364;2023-05-10T04:19:29;12.40;99.90
23079;DHT22;11707;50.830;4.364;2023-05-10T04:21:55;12.40;99.90
23079;DHT22;11707;50.830;4.364;2023-05-10T04:24:21;12.40;99.90
23079;DHT22;11707;50.830;4.364;2023-05-10T04:26:47;12.40;99.90
23079;DHT22;11707;50.830;4.364;2023-05-10T04:29:12;12.40;99.90
23079;DHT22;11707;50.830;4.364;2023-05-10T04:31:38;12.40;99.90
23079;DHT22;11707;50.830;4.364;2023-05-10T04:34:04;12.40;99.90
23079;DHT22;11707;50.830;4.364;2023-05-10T04:36:29;12.40;99.90
23079;DHT22;11707;50.830;4.364;2023-05-10T04:38:55;12.40;99.90
23079;DHT22;11707;50.830;4.364;2023-05-10T04:41:21;12.30;99.90
23079;DHT22;11707;50.830;4.364;2023-05-10T04:43:47;12.40;99.90
23079;DHT22;11707;50.830;4.364;2023-05-10T04:46:17;12.50;99.90
23079;DHT22;11707;50.830;4.364;2023-05-10T04:48:43;12.40;99.90
23079;DHT22;11707;50.830;4.364;2023-05-10T04:51:11;12.40;99.90
23079;DHT22;11707;50.830;4.364;2023-05-10T04:53:37;12.40;99.90
23079;DHT22;11707;50.830;4.364;2023-05-10T04:56:03;12.40;99.90
23079;DHT22;11707;50.830;4.364;2023-05-10T04:58:31;12.40;99.90
23079;DHT22;11707;50.830;4.364;2023-05-10T05:01:03;12.40;99.90
23079;DHT22;11707;50.830;4.364;2023-05-10T05:03:29;12.40;99.90
23079;DHT22;11707;50.830;4.364;2023-05-10T05:05:55;12.50;99.90
23079;DHT22;11707;50.830;4.364;2023-05-10T05:08:21;12.50;99.90
23079;DHT22;11707;50.830;4.364;2023-05-10T05:10:48;12.60;99.90
23079;DHT22;11707;50.830;4.364;2023-05-10T05:13:15;12.60;99.90
23079;DHT22;11707;50.830;4.364;2023-05-10T05:15:41;12.60;99.90
23079;DHT22;11707;50.830;4.364;2023-05-10T05:18:06;12.50;99.90
23079;DHT22;11707;50.830;4.364;2023-05-10T05:20:34;12.40;99.90
23079;DHT22;11707;50.830;4.364;2023-05-10T05:23:00;12.20;99.90
23079;DHT22;11707;50.830;4.364;2023-05-10T05:25:28;12.10;99.90
23079;DHT22;11707;50.830;4.364;2023-05-10T05:27:54;12.00;99.90
23079;DHT22;11707;50.830;4.364;2023-05-10T05:30:20;12.00;99.90
23079;DHT22;11707;50.830;4.364;2023-05-10T05:32:45;12.00;99.90
23079;DHT22;11707;50.830;4.364;2023-05-10T05:35:12;11.90;99.90
23079;DHT22;11707;50.830;4.364;2023-05-10T05:37:38;11.90;99.90
23079;DHT22;11707;50.830;4.364;2023-05-10T05:40:04;11.90;99.90
23079;DHT22;11707;50.830;4.364;2023-05-10T05:42:31;11.90;99.90
23079;DHT22;11707;50.830;4.364;2023-05-10T05:44:56;11.90;99.90
23079;DHT22;11707;50.830;4.364;2023-05-10T05:47:22;12.00;99.90
23079;DHT22;11707;50.830;4.364;2023-05-10T05:49:48;11.90;99.90
23079;DHT22;11707;50.830;4.364;2023-05-10T05:52:14;11.90;99.90
23079;DHT22;11707;50.830;4.364;2023-05-10T05:54:39;11.90;99.90
23079;DHT22;11707;50.830;4.364;2023-05-10T05:57:05;11.90;99.90
23079;DHT22;11707;50.830;4.364;2023-05-10T05:59:31;12.00;99.90
23079;DHT22;11707;50.830;4.364;2023-05-10T06:01:57;12.00;99.90
23079;DHT22;11707;50.830;4.364;2023-05-10T06:04:22;12.00;99.90
23079;DHT22;11707;50.830;4.364;2023-05-10T06:06:50;12.00;99.90
23079;DHT22;11707;50.830;4.364;2023-05-10T06:09:18;12.00;99.90
23079;DHT22;11707;50.830;4.364;2023-05-10T06:11:44;11.90;99.90
23079;DHT22;11707;50.830;4.364;2023-05-10T06:14:12;11.90;99.90
23079;DHT22;11707;50.830;4.364;2023-05-10T06:16:38;11.80;99.90
23079;DHT22;11707;50.830;4.364;2023-05-10T06:19:03;11.70;99.90
23079;DHT22;11707;50.830;4.364;2023-05-10T06:21:29;11.70;99.90
23079;DHT22;11707;50.830;4.364;2023-05-10T06:23:55;11.70;99.90
23079;DHT22;11707;50.830;4.364;2023-05-10T06:26:21;11.80;99.90
23079;DHT22;11707;50.830;4.364;2023-05-10T06:28:47;11.80;99.90
23079;DHT22;11707;50.830;4.364;2023-05-10T06:31:12;11.80;99.90
23079;DHT22;11707;50.830;4.364;2023-05-10T06:33:38;11.70;99.90
23079;DHT22;11707;50.830;4.364;2023-05-10T06:36:04;11.80;99.90
23079;DHT22;11707;50.830;4.364;2023-05-10T06:38:30;11.80;99.90
23079;DHT22;11707;50.830;4.364;2023-05-10T06:40:55;11.90;99.90
23079;DHT22;11707;50.830;4.364;2023-05-10T06:43:21;12.00;99.90
23079;DHT22;11707;50.830;4.364;2023-05-10T06:45:48;11.90;99.90
23079;DHT22;11707;50.830;4.364;2023-05-10T06:48:13;11.80;99.90
23079;DHT22;11707;50.830;4.364;2023-05-10T06:50:39;11.70;99.90
23079;DHT22;11707;50.830;4.364;2023-05-10T06:53:07;11.70;99.90
23079;DHT22;11707;50.830;4.364;2023-05-10T06:55:35;11.80;99.90
23079;DHT22;11707;50.830;4.364;2023-05-10T06:58:01;11.80;99.90
23079;DHT22;11707;50.830;4.364;2023-05-10T07:00:27;11.80;99.90
23079;DHT22;11707;50.830;4.364;2023-05-10T07:02:53;11.90;99.90
23079;DHT22;11707;50.830;4.364;2023-05-10T07:05:19;11.90;99.90
23079;DHT22;11707;50.830;4.364;2023-05-10T07:07:45;12.00;99.90
23079;DHT22;11707;50.830;4.364;2023-05-10T07:10:13;12.20;99.90
23079;DHT22;11707;50.830;4.364;2023-05-10T07:12:39;12.30;99.90
23079;DHT22;11707;50.830;4.364;2023-05-10T07:15:05;12.30;99.90
23079;DHT22;11707;50.830;4.364;2023-05-10T07:17:31;12.20;99.90
23079;DHT22;11707;50.830;4.364;2023-05-10T07:19:58;12.20;99.90
23079;DHT22;11707;50.830;4.364;2023-05-10T07:22:25;12.10;99.90
23079;DHT22;11707;50.830;4.364;2023-05-10T07:24:51;12.20;99.90
23079;DHT22;11707;50.830;4.364;2023-05-10T07:27:17;12.10;99.90
23079;DHT22;11707;50.830;4.364;2023-05-10T07:29:42;12.00;99.90
23079;DHT22;11707;50.830;4.364;2023-05-10T07:32:08;12.00;99.90
23079;DHT22;11707;50.830;4.364;2023-05-10T07:34:34;11.80;99.90
23079;DHT22;11707;50.830;4.364;2023-05-10T07:37:00;11.80;99.90
23079;DHT22;11707;50.830;4.364;2023-05-10T07:39:26;11.80;99.90
23079;DHT22;11707;50.830;4.364;2023-05-10T07:41:52;11.80;99.90
23079;DHT22;11707;50.830;4.364;2023-05-10T07:44:18;11.70;99.90
23079;DHT22;11707;50.830;4.364;2023-05-10T07:46:45;11.90;99.90
23079;DHT22;11707;50.830;4.364;2023-05-10T07:49:11;11.80;99.90
23079;DHT22;11707;50.830;4.364;2023-05-10T07:51:37;11.80;99.90
23079;DHT22;11707;50.830;4.364;2023-05-10T07:54:03;11.80;99.90
23079;DHT22;11707;50.830;4.364;2023-05-10T07:56:30;11.90;99.90
23079;DHT22;11707;50.830;4.364;2023-05-10T07:59:01;11.90;99.90
23079;DHT22;11707;50.830;4.364;2023-05-10T08:01:30;11.90;99.90
23079;DHT22;11707;50.830;4.364;2023-05-10T08:03:58;11.90;99.90
23079;DHT22;11707;50.830;4.364;2023-05-10T08:06:25;12.00;99.90
23079;DHT22;11707;50.830;4.364;2023-05-10T08:08:52;12.10;99.90
23079;DHT22;11707;50.830;4.364;2023-05-10T08:11:20;12.20;99.90
23079;DHT22;11707;50.830;4.364;2023-05-10T08:13:47;12.20;99.90
23079;DHT22;11707;50.830;4.364;2023-05-10T08:16:13;12.20;99.90
23079;DHT22;11707;50.830;4.364;2023-05-10T08:18:42;12.30;99.90
23079;DHT22;11707;50.830;4.364;2023-05-10T08:21:08;12.50;99.90
23079;DHT22;11707;50.830;4.364;2023-05-10T08:23:36;12.40;99.90
23079;DHT22;11707;50.830;4.364;2023-05-10T08:26:02;12.40;99.90
23079;DHT22;11707;50.830;4.364;2023-05-10T08:28:28;12.40;99.90
23079;DHT22;11707;50.830;4.364;2023-05-10T08:30:54;12.50;99.90
23079;DHT22;11707;50.830;4.364;2023-05-10T08:33:22;12.60;99.90
23079;DHT22;11707;50.830;4.364;2023-05-10T08:35:48;12.60;99.90
23079;DHT22;11707;50.830;4.364;2023-05-10T08:38:13;12.70;99.90
23079;DHT22;11707;50.830;4.364;2023-05-10T08:40:43;12.60;99.90
23079;DHT22;11707;50.830;4.364;2023-05-10T08:43:13;12.60;99.90
23079;DHT22;11707;50.830;4.364;2023-05-10T08:45:44;12.60;99.90
23079;DHT22;11707;50.830;4.364;2023-05-10T08:48:14;12.60;99.90
23079;DHT22;11707;50.830;4.364;2023-05-10T08:50:41;12.70;99.90
23079;DHT22;11707;50.830;4.364;2023-05-10T08:53:13;12.80;99.90
23079;DHT22;11707;50.830;4.364;2023-05-10T08:55:40;12.70;99.90
23079;DHT22;11707;50.830;4.364;2023-05-10T08:58:08;12.80;99.90
23079;DHT22;11707;50.830;4.364;2023-05-10T09:00:34;12.70;99.90
23079;DHT22;11707;50.830;4.364;2023-05-10T09:03:02;12.70;99.90
23079;DHT22;11707;50.830;4.364;2023-05-10T09:05:28;12.60;99.90
23079;DHT22;11707;50.830;4.364;2023-05-10T09:07:56;12.70;99.90
23079;DHT22;11707;50.830;4.364;2023-05-10T09:10:23;12.70;99.90
23079;DHT22;11707;50.830;4.364;2023-05-10T09:12:51;12.90;99.90
23079;DHT22;11707;50.830;4.364;2023-05-10T09:15:19;12.90;99.90
23079;DHT22;11707;50.830;4.364;2023-05-10T09:17:49;12.90;99.90
23079;DHT22;11707;50.830;4.364;2023-05-10T09:20:15;12.80;99.90
23079;DHT22;11707;50.830;4.364;2023-05-10T09:22:43;12.60;99.90
23079;DHT22;11707;50.830;4.364;2023-05-10T09:25:13;12.40;99.90
23079;DHT22;11707;50.830;4.364;2023-05-10T09:27:41;12.30;99.90
23079;DHT22;11707;50.830;4.364;2023-05-10T09:30:09;12.30;99.90
23079;DHT22;11707;50.830;4.364;2023-05-10T09:32:42;12.30;99.90
23079;DHT22;11707;50.830;4.364;2023-05-10T09:35:13;12.40;99.90
23079;DHT22;11707;50.830;4.364;2023-05-10T09:37:42;12.40;99.90
23079;DHT22;11707;50.830;4.364;2023-05-10T09:40:14;12.50;99.90
23079;DHT22;11707;50.830;4.364;2023-05-10T09:42:42;12.30;99.90
23079;DHT22;11707;50.830;4.364;2023-05-10T09:45:08;12.30;99.90
23079;DHT22;11707;50.830;4.364;2023-05-10T09:47:35;12.30;99.90
23079;DHT22;11707;50.830;4.364;2023-05-10T09:50:02;12.50;99.90
23079;DHT22;11707;50.830;4.364;2023-05-10T09:55:26;12.50;99.90
23079;DHT22;11707;50.830;4.364;2023-05-10T09:58:01;12.60;99.90
23079;DHT22;11707;50.830;4.364;2023-05-10T10:00:28;12.50;99.90
23079;DHT22;11707;50.830;4.364;2023-05-10T10:02:58;12.50;99.90
23079;DHT22;11707;50.830;4.364;2023-05-10T10:05:32;12.70;99.90
23079;DHT22;11707;50.830;4.364;2023-05-10T10:07:58;12.70;99.90
23079;DHT22;11707;50.830;4.364;2023-05-10T10:10:25;12.80;99.90
23079;DHT22;11707;50.830;4.364;2023-05-10T10:12:52;12.60;99.90
23079;DHT22;11707;50.830;4.364;2023-05-10T10:15:18;12.70;99.90
23079;DHT22;11707;50.830;4.364;2023-05-10T10:17:46;12.70;99.90
23079;DHT22;11707;50.830;4.364;2023-05-10T10:20:13;12.80;99.90
23079;DHT22;11707;50.830;4.364;2023-05-10T10:22:39;12.80;99.90
23079;DHT22;11707;50.830;4.364;2023-05-10T10:25:06;12.90;99.90
23079;DHT22;11707;50.830;4.364;2023-05-10T10:33:10;13.00;99.90
23079;DHT22;11707;50.830;4.364;2023-05-10T10:35:39;13.30;99.90
23079;DHT22;11707;50.830;4.364;2023-05-10T10:38:08;13.40;99.90
23079;DHT22;11707;50.830;4.364;2023-05-10T10:40:34;13.50;99.90
23079;DHT22;11707;50.830;4.364;2023-05-10T10:43:28;13.60;99.90
23079;DHT22;11707;50.830;4.364;2023-05-10T10:48:35;13.70;99.90
23079;DHT22;11707;50.830;4.364;2023-05-10T10:51:01;13.60;99.90
23079;DHT22;11707;50.830;4.364;2023-05-10T10:53:27;13.60;99.90
23079;DHT22;11707;50.830;4.364;2023-05-10T10:56:14;13.80;99.90
23079;DHT22;11707;50.830;4.364;2023-05-10T10:58:42;14.00;99.90
23079;DHT22;11707;50.830;4.364;2023-05-10T11:01:18;14.20;99.90
23079;DHT22;11707;50.830;4.364;2023-05-10T11:06:34;14.20;99.90
23079;DHT22;11707;50.830;4.364;2023-05-10T11:09:09;14.20;99.90
23079;DHT22;11707;50.830;4.364;2023-05-10T11:11:36;14.00;99.90
23079;DHT22;11707;50.830;4.364;2023-05-10T11:14:13;14.10;99.90
23079;DHT22;11707;50.830;4.364;2023-05-10T11:16:43;14.10;99.90
23079;DHT22;11707;50.830;4.364;2023-05-10T11:19:11;14.20;99.90
23079;DHT22;11707;50.830;4.364;2023-05-10T11:21:49;14.40;99.90
23079;DHT22;11707;50.830;4.364;2023-05-10T11:24:17;14.50;99.90
23079;DHT22;11707;50.830;4.364;2023-05-10T11:26:43;14.70;99.90
23079;DHT22;11707;50.830;4.364;2023-05-10T11:29:15;14.90;99.90
23079;DHT22;11707;50.830;4.364;2023-05-10T11:31:43;15.00;99.90
23079;DHT22;11707;50.830;4.364;2023-05-10T11:34:10;15.00;99.90
23079;DHT22;11707;50.830;4.364;2023-05-10T11:36:36;15.20;99.90
23079;DHT22;11707;50.830;4.364;2023-05-10T11:39:03;15.40;99.90
23079;DHT22;11707;50.830;4.364;2023-05-10T11:41:32;15.50;99.90
23079;DHT22;11707;50.830;4.364;2023-05-10T11:44:04;15.50;99.90
23079;DHT22;11707;50.830;4.364;2023-05-10T11:46:30;15.50;99.90
23079;DHT22;11707;50.830;4.364;2023-05-10T11:49:01;15.50;99.90
23079;DHT22;11707;50.830;4.364;2023-05-10T11:51:27;15.40;99.90
23079;DHT22;11707;50.830;4.364;2023-05-10T11:53:56;15.50;99.90
23079;DHT22;11707;50.830;4.364;2023-05-10T11:56:22;15.60;99.90
23079;DHT22;11707;50.830;4.364;2023-05-10T11:58:57;15.70;99.90
23079;DHT22;11707;50.830;4.364;2023-05-10T12:01:25;15.70;99.90
23079;DHT22;11707;50.830;4.364;2023-05-10T12:03:53;15.80;99.90
23079;DHT22;11707;50.830;4.364;2023-05-10T12:06:19;15.60;99.90
23079;DHT22;11707;50.830;4.364;2023-05-10T12:08:47;15.30;99.90
23079;DHT22;11707;50.830;4.364;2023-05-10T12:11:13;15.10;99.90
23079;DHT22;11707;50.830;4.364;2023-05-10T12:13:42;15.00;99.90
23079;DHT22;11707;50.830;4.364;2023-05-10T12:16:19;15.00;99.90
23079;DHT22;11707;50.830;4.364;2023-05-10T12:18:49;15.00;99.90
23079;DHT22;11707;50.830;4.364;2023-05-10T12:21:16;15.30;99.90
23079;DHT22;11707;50.830;4.364;2023-05-10T12:23:45;15.20;99.90
23079;DHT22;11707;50.830;4.364;2023-05-10T12:26:11;15.40;99.90
23079;DHT22;11707;50.830;4.364;2023-05-10T12:28:38;15.40;99.90
23079;DHT22;11707;50.830;4.364;2023-05-10T12:31:06;15.40;99.90
23079;DHT22;11707;50.830;4.364;2023-05-10T12:33:38;15.40;99.90
23079;DHT22;11707;50.830;4.364;2023-05-10T12:36:05;15.70;99.90
23079;DHT22;11707;50.830;4.364;2023-05-10T12:38:33;15.80;99.90
23079;DHT22;11707;50.830;4.364;2023-05-10T12:41:01;16.00;99.90
23079;DHT22;11707;50.830;4.364;2023-05-10T12:43:27;16.20;99.90
23079;DHT22;11707;50.830;4.364;2023-05-10T12:45:53;16.20;99.90
23079;DHT22;11707;50.830;4.364;2023-05-10T12:48:21;16.10;99.90
23079;DHT22;11707;50.830;4.364;2023-05-10T12:50:48;16.00;99.90
23079;DHT22;11707;50.830;4.364;2023-05-10T12:53:15;16.20;99.90
23079;DHT22;11707;50.830;4.364;2023-05-10T12:55:44;16.80;97.70
23079;DHT22;11707;50.830;4.364;2023-05-10T12:58:12;17.00;86.30
23079;DHT22;11707;50.830;4.364;2023-05-10T13:00:37;16.60;93.40
23079;DHT22;11707;50.830;4.364;2023-05-10T13:03:04;16.30;98.10
23079;DHT22;11707;50.830;4.364;2023-05-10T13:05:32;16.50;95.60
23079;DHT22;11707;50.830;4.364;2023-05-10T13:07:58;17.10;90.90
23079;DHT22;11707;50.830;4.364;2023-05-10T13:10:23;17.80;85.70
23079;DHT22;11707;50.830;4.364;2023-05-10T13:12:50;18.00;75.30
23079;DHT22;11707;50.830;4.364;2023-05-10T13:15:18;17.60;67.40
23079;DHT22;11707;50.830;4.364;2023-05-10T13:17:44;17.50;71.80
23079;DHT22;11707;50.830;4.364;2023-05-10T13:20:10;17.30;81.40
23079;DHT22;11707;50.830;4.364;2023-05-10T13:22:36;17.40;79.80
23079;DHT22;11707;50.830;4.364;2023-05-10T13:25:02;17.20;82.80
23079;DHT22;11707;50.830;4.364;2023-05-10T13:27:28;16.90;88.90
23079;DHT22;11707;50.830;4.364;2023-05-10T13:29:54;17.00;90.70
23079;DHT22;11707;50.830;4.364;2023-05-10T13:32:20;16.80;82.20
23079;DHT22;11707;50.830;4.364;2023-05-10T13:34:46;16.70;83.50
23079;DHT22;11707;50.830;4.364;2023-05-10T13:37:12;16.70;81.80
23079;DHT22;11707;50.830;4.364;2023-05-10T13:39:37;16.70;85.20
23079;DHT22;11707;50.830;4.364;2023-05-10T13:42:04;16.60;80.40
23079;DHT22;11707;50.830;4.364;2023-05-10T13:44:29;16.40;74.50
23079;DHT22;11707;50.830;4.364;2023-05-10T13:46:56;16.40;73.70
23079;DHT22;11707;50.830;4.364;2023-05-10T13:49:22;16.50;80.00
23079;DHT22;11707;50.830;4.364;2023-05-10T13:51:48;16.50;77.80
23079;DHT22;11707;50.830;4.364;2023-05-10T13:54:13;16.50;76.50
23079;DHT22;11707;50.830;4.364;2023-05-10T13:56:42;16.40;85.00
23079;DHT22;11707;50.830;4.364;2023-05-10T13:59:09;16.40;90.30
23079;DHT22;11707;50.830;4.364;2023-05-10T14:01:34;16.30;90.40
23079;DHT22;11707;50.830;4.364;2023-05-10T14:04:03;16.40;92.40
23079;DHT22;11707;50.830;4.364;2023-05-10T14:06:28;16.30;92.60
23079;DHT22;11707;50.830;4.364;2023-05-10T14:08:54;16.30;93.70
23079;DHT22;11707;50.830;4.364;2023-05-10T14:11:20;16.20;94.70
23079;DHT22;11707;50.830;4.364;2023-05-10T14:13:46;16.30;92.00
23079;DHT22;11707;50.830;4.364;2023-05-10T14:16:11;16.30;84.00
23079;DHT22;11707;50.830;4.364;2023-05-10T14:18:39;16.40;86.80
23079;DHT22;11707;50.830;4.364;2023-05-10T14:21:05;16.50;83.40
23079;DHT22;11707;50.830;4.364;2023-05-10T14:23:31;16.30;88.70
23079;DHT22;11707;50.830;4.364;2023-05-10T14:25:57;16.30;90.70
23079;DHT22;11707;50.830;4.364;2023-05-10T14:28:22;16.40;90.40
23079;DHT22;11707;50.830;4.364;2023-05-10T14:30:50;16.50;90.50
23079;DHT22;11707;50.830;4.364;2023-05-10T14:33:16;16.50;85.20
23079;DHT22;11707;50.830;4.364;2023-05-10T14:35:42;16.50;90.90
23079;DHT22;11707;50.830;4.364;2023-05-10T14:38:08;16.70;84.30
23079;DHT22;11707;50.830;4.364;2023-05-10T14:40:34;16.60;88.40
23079;DHT22;11707;50.830;4.364;2023-05-10T14:43:00;16.40;90.60
23079;DHT22;11707;50.830;4.364;2023-05-10T14:45:26;16.30;91.30
23079;DHT22;11707;50.830;4.364;2023-05-10T14:47:51;16.10;91.60
23079;DHT22;11707;50.830;4.364;2023-05-10T14:50:17;16.00;95.50
23079;DHT22;11707;50.830;4.364;2023-05-10T14:52:43;15.90;97.70
23079;DHT22;11707;50.830;4.364;2023-05-10T14:55:09;15.90;97.80
23079;DHT22;11707;50.830;4.364;2023-05-10T14:57:35;15.80;97.10
23079;DHT22;11707;50.830;4.364;2023-05-10T15:00:02;15.60;98.00
23079;DHT22;11707;50.830;4.364;2023-05-10T15:02:31;15.50;99.50
23079;DHT22;11707;50.830;4.364;2023-05-10T15:04:57;15.40;99.90
23079;DHT22;11707;50.830;4.364;2023-05-10T15:07:23;15.20;99.90
23079;DHT22;11707;50.830;4.364;2023-05-10T15:09:51;15.10;99.90
23079;DHT22;11707;50.830;4.364;2023-05-10T15:12:18;14.70;99.90
23079;DHT22;11707;50.830;4.364;2023-05-10T15:14:44;14.40;99.90
23079;DHT22;11707;50.830;4.364;2023-05-10T15:17:09;14.30;99.90
23079;DHT22;11707;50.830;4.364;2023-05-10T15:19:36;14.30;99.90
23079;DHT22;11707;50.830;4.364;2023-05-10T15:22:02;14.10;99.90
23079;DHT22;11707;50.830;4.364;2023-05-10T15:24:28;14.00;99.90
23079;DHT22;11707;50.830;4.364;2023-05-10T15:26:57;13.90;99.90
23079;DHT22;11707;50.830;4.364;2023-05-10T15:29:22;14.00;99.90
23079;DHT22;11707;50.830;4.364;2023-05-10T15:31:51;14.00;94.90
23079;DHT22;11707;50.830;4.364;2023-05-10T15:34:20;14.10;94.90
23079;DHT22;11707;50.830;4.364;2023-05-10T15:36:46;14.20;91.80
23079;DHT22;11707;50.830;4.364;2023-05-10T15:39:11;14.20;88.50
23079;DHT22;11707;50.830;4.364;2023-05-10T15:41:37;14.30;83.80
23079;DHT22;11707;50.830;4.364;2023-05-10T15:44:03;14.50;77.90
23079;DHT22;11707;50.830;4.364;2023-05-10T15:46:29;14.70;77.80
23079;DHT22;11707;50.830;4.364;2023-05-10T15:48:58;14.80;68.80
23079;DHT22;11707;50.830;4.364;2023-05-10T15:51:25;14.80;61.10
23079;DHT22;11707;50.830;4.364;2023-05-10T15:53:51;15.00;54.40
23079;DHT22;11707;50.830;4.364;2023-05-10T15:56:16;15.00;47.40
23079;DHT22;11707;50.830;4.364;2023-05-10T15:58:42;15.00;1.00
23079;DHT22;11707;50.830;4.364;2023-05-10T16:01:09;15.10;1.00
23079;DHT22;11707;50.830;4.364;2023-05-10T16:03:36;15.10;1.00
23079;DHT22;11707;50.830;4.364;2023-05-10T16:06:02;15.30;1.00